sensor_id;sensor_type;location;lat;lon;timestamp;P1;durP1;ratioP1;P2;durP2;ratioP2
10410;SDS011;5251;52.112;8.606;2023-11-19T00:01:26;1.80;;;1.30;;
10410;SDS011;5251;52.112;8.606;2023-11-19T00:03:52;1.50;;;1.40;;
10410;SDS011;5251;52.112;8.606;2023-11-19T00:06:18;1.65;;;1.50;;
10410;SDS011;5251;52.112;8.606;2023-11-19T00:08:44;1.70;;;1.60;;
10410;SDS011;5251;52.112;8.606;2023-11-19T00:11:09;2.45;;;1.55;;
10410;SDS011;5251;52.112;8.606;2023-11-19T00:13:36;1.75;;;1.48;;
10410;SDS011;5251;52.112;8.606;2023-11-19T00:16:02;1.40;;;1.30;;
10410;SDS011;5251;52.112;8.606;2023-11-19T00:18:29;2.97;;;1.30;;
10410;SDS011;5251;52.112;8.606;2023-11-19T00:20:54;1.30;;;1.20;;
10410;SDS011;5251;52.112;8.606;2023-11-19T00:23:20;1.45;;;1.20;;
10410;SDS011;5251;52.112;8.606;2023-11-19T00:25:45;1.30;;;1.20;;
10410;SDS011;5251;52.112;8.606;2023-11-19T00:28:12;1.48;;;1.00;;
10410;SDS011;5251;52.112;8.606;2023-11-19T00:30:38;1.55;;;1.30;;
10410;SDS011;5251;52.112;8.606;2023-11-19T00:33:06;1.42;;;1.20;;
10410;SDS011;5251;52.112;8.606;2023-11-19T00:35:32;0.93;;;0.90;;
10410;SDS011;5251;52.112;8.606;2023-11-19T00:37:58;1.92;;;1.35;;
10410;SDS011;5251;52.112;8.606;2023-11-19T00:40:23;1.27;;;1.17;;
10410;SDS011;5251;52.112;8.606;2023-11-19T00:42:49;1.30;;;1.20;;
10410;SDS011;5251;52.112;8.606;2023-11-19T00:45:15;1.65;;;1.45;;
10410;SDS011;5251;52.112;8.606;2023-11-19T00:47:41;1.30;;;1.20;;
10410;SDS011;5251;52.112;8.606;2023-11-19T00:50:07;1.33;;;1.23;;
10410;SDS011;5251;52.112;8.606;2023-11-19T00:52:34;1.23;;;1.02;;
10410;SDS011;5251;52.112;8.606;2023-11-19T00:55:00;1.90;;;1.30;;
10410;SDS011;5251;52.112;8.606;2023-11-19T00:57:26;1.13;;;1.10;;
10410;SDS011;5251;52.112;8.606;2023-11-19T00:59:52;3.30;;;1.42;;
10410;SDS011;5251;52.112;8.606;2023-11-19T01:02:17;2.95;;;1.45;;
10410;SDS011;5251;52.112;8.606;2023-11-19T01:04:43;1.77;;;1.50;;
10410;SDS011;5251;52.112;8.606;2023-11-19T01:07:09;1.50;;;1.40;;
10410;SDS011;5251;52.112;8.606;2023-11-19T01:09:38;1.80;;;1.70;;
10410;SDS011;5251;52.112;8.606;2023-11-19T01:12:04;2.05;;;1.52;;
10410;SDS011;5251;52.112;8.606;2023-11-19T01:14:30;3.20;;;1.70;;
10410;SDS011;5251;52.112;8.606;2023-11-19T01:16:56;1.80;;;1.52;;
10410;SDS011;5251;52.112;8.606;2023-11-19T01:19:21;1.65;;;1.55;;
10410;SDS011;5251;52.112;8.606;2023-11-19T01:21:48;1.90;;;1.42;;
10410;SDS011;5251;52.112;8.606;2023-11-19T01:24:14;1.60;;;1.50;;
10410;SDS011;5251;52.112;8.606;2023-11-19T01:26:40;1.50;;;1.40;;
10410;SDS011;5251;52.112;8.606;2023-11-19T01:29:13;2.05;;;1.60;;
10410;SDS011;5251;52.112;8.606;2023-11-19T01:31:42;1.90;;;1.35;;
10410;SDS011;5251;52.112;8.606;2023-11-19T01:34:08;1.45;;;1.30;;
10410;SDS011;5251;52.112;8.606;2023-11-19T01:36:34;2.53;;;1.45;;
10410;SDS011;5251;52.112;8.606;2023-11-19T01:38:59;2.53;;;1.60;;
10410;SDS011;5251;52.112;8.606;2023-11-19T01:41:25;2.45;;;1.77;;
10410;SDS011;5251;52.112;8.606;2023-11-19T01:43:51;2.92;;;2.10;;
10410;SDS011;5251;52.112;8.606;2023-11-19T01:46:16;2.78;;;2.20;;
10410;SDS011;5251;52.112;8.606;2023-11-19T01:48:42;2.55;;;2.33;;
10410;SDS011;5251;52.112;8.606;2023-11-19T01:51:10;2.50;;;2.08;;
10410;SDS011;5251;52.112;8.606;2023-11-19T01:53:37;2.67;;;2.47;;
10410;SDS011;5251;52.112;8.606;2023-11-19T01:56:04;2.88;;;2.60;;
10410;SDS011;5251;52.112;8.606;2023-11-19T01:58:34;3.17;;;2.88;;
10410;SDS011;5251;52.112;8.606;2023-11-19T02:01:00;3.10;;;2.80;;
10410;SDS011;5251;52.112;8.606;2023-11-19T02:03:29;3.40;;;3.10;;
10410;SDS011;5251;52.112;8.606;2023-11-19T02:05:57;4.28;;;3.13;;
10410;SDS011;5251;52.112;8.606;2023-11-19T02:08:23;2.90;;;2.65;;
10410;SDS011;5251;52.112;8.606;2023-11-19T02:10:49;3.03;;;2.72;;
10410;SDS011;5251;52.112;8.606;2023-11-19T02:13:14;3.22;;;2.65;;
10410;SDS011;5251;52.112;8.606;2023-11-19T02:15:41;3.08;;;2.78;;
10410;SDS011;5251;52.112;8.606;2023-11-19T02:18:19;2.47;;;2.28;;
10410;SDS011;5251;52.112;8.606;2023-11-19T02:20:55;2.70;;;2.50;;
10410;SDS011;5251;52.112;8.606;2023-11-19T02:23:22;4.32;;;2.30;;
10410;SDS011;5251;52.112;8.606;2023-11-19T02:28:36;4.53;;;2.30;;
10410;SDS011;5251;52.112;8.606;2023-11-19T02:31:02;2.60;;;2.40;;
10410;SDS011;5251;52.112;8.606;2023-11-19T02:33:30;4.80;;;2.85;;
10410;SDS011;5251;52.112;8.606;2023-11-19T02:35:55;2.90;;;2.70;;
10410;SDS011;5251;52.112;8.606;2023-11-19T02:38:21;3.55;;;2.60;;
10410;SDS011;5251;52.112;8.606;2023-11-19T02:40:46;3.30;;;3.00;;
10410;SDS011;5251;52.112;8.606;2023-11-19T02:43:12;2.92;;;2.70;;
10410;SDS011;5251;52.112;8.606;2023-11-19T02:45:38;3.00;;;2.80;;
10410;SDS011;5251;52.112;8.606;2023-11-19T02:48:04;3.75;;;3.50;;
10410;SDS011;5251;52.112;8.606;2023-11-19T02:50:31;3.95;;;3.58;;
10410;SDS011;5251;52.112;8.606;2023-11-19T02:52:57;4.05;;;3.75;;
10410;SDS011;5251;52.112;8.606;2023-11-19T02:55:23;4.57;;;4.28;;
10410;SDS011;5251;52.112;8.606;2023-11-19T02:57:49;4.47;;;4.18;;
10410;SDS011;5251;52.112;8.606;2023-11-19T03:00:16;5.00;;;4.50;;
10410;SDS011;5251;52.112;8.606;2023-11-19T03:02:43;5.80;;;5.20;;
10410;SDS011;5251;52.112;8.606;2023-11-19T03:05:11;5.68;;;5.07;;
10410;SDS011;5251;52.112;8.606;2023-11-19T03:07:39;6.00;;;5.50;;
10410;SDS011;5251;52.112;8.606;2023-11-19T03:10:09;7.30;;;6.50;;
10410;SDS011;5251;52.112;8.606;2023-11-19T03:12:38;6.25;;;5.60;;
10410;SDS011;5251;52.112;8.606;2023-11-19T03:15:04;6.32;;;5.78;;
10410;SDS011;5251;52.112;8.606;2023-11-19T03:17:30;6.20;;;5.60;;
10410;SDS011;5251;52.112;8.606;2023-11-19T03:19:56;6.50;;;5.90;;
10410;SDS011;5251;52.112;8.606;2023-11-19T03:22:21;7.50;;;6.53;;
10410;SDS011;5251;52.112;8.606;2023-11-19T03:24:47;6.90;;;6.20;;
10410;SDS011;5251;52.112;8.606;2023-11-19T03:27:16;7.32;;;6.63;;
10410;SDS011;5251;52.112;8.606;2023-11-19T03:29:42;7.32;;;6.60;;
10410;SDS011;5251;52.112;8.606;2023-11-19T03:32:08;8.35;;;7.55;;
10410;SDS011;5251;52.112;8.606;2023-11-19T03:34:33;10.90;;;6.78;;
10410;SDS011;5251;52.112;8.606;2023-11-19T03:36:59;9.13;;;7.38;;
10410;SDS011;5251;52.112;8.606;2023-11-19T03:39:25;8.48;;;7.47;;
10410;SDS011;5251;52.112;8.606;2023-11-19T03:41:52;9.85;;;7.90;;
10410;SDS011;5251;52.112;8.606;2023-11-19T03:44:17;8.77;;;6.93;;
10410;SDS011;5251;52.112;8.606;2023-11-19T03:46:44;8.65;;;6.80;;
10410;SDS011;5251;52.112;8.606;2023-11-19T03:49:09;8.07;;;7.20;;
10410;SDS011;5251;52.112;8.606;2023-11-19T03:51:35;8.60;;;6.97;;
10410;SDS011;5251;52.112;8.606;2023-11-19T03:54:00;7.43;;;6.45;;
10410;SDS011;5251;52.112;8.606;2023-11-19T03:56:26;7.13;;;5.97;;
10410;SDS011;5251;52.112;8.606;2023-11-19T03:58:56;7.80;;;6.50;;
10410;SDS011;5251;52.112;8.606;2023-11-19T04:01:21;9.07;;;7.35;;
10410;SDS011;5251;52.112;8.606;2023-11-19T04:03:47;10.52;;;8.18;;
10410;SDS011;5251;52.112;8.606;2023-11-19T04:06:12;7.50;;;6.70;;
10410;SDS011;5251;52.112;8.606;2023-11-19T04:08:38;9.02;;;7.38;;
10410;SDS011;5251;52.112;8.606;2023-11-19T04:11:04;8.27;;;7.35;;
10410;SDS011;5251;52.112;8.606;2023-11-19T04:13:30;8.48;;;7.53;;
10410;SDS011;5251;52.112;8.606;2023-11-19T04:15:55;9.02;;;8.13;;
10410;SDS011;5251;52.112;8.606;2023-11-19T04:18:21;10.45;;;8.35;;
10410;SDS011;5251;52.112;8.606;2023-11-19T04:20:46;9.85;;;7.53;;
10410;SDS011;5251;52.112;8.606;2023-11-19T04:23:12;8.63;;;7.72;;
10410;SDS011;5251;52.112;8.606;2023-11-19T04:25:37;7.97;;;7.18;;
10410;SDS011;5251;52.112;8.606;2023-11-19T04:28:03;7.80;;;7.07;;
10410;SDS011;5251;52.112;8.606;2023-11-19T04:30:29;8.07;;;7.07;;
10410;SDS011;5251;52.112;8.606;2023-11-19T04:32:56;13.48;;;6.82;;
10410;SDS011;5251;52.112;8.606;2023-11-19T04:35:22;6.60;;;5.65;;
10410;SDS011;5251;52.112;8.606;2023-11-19T04:37:48;10.85;;;6.53;;
10410;SDS011;5251;52.112;8.606;2023-11-19T04:40:14;8.73;;;6.45;;
10410;SDS011;5251;52.112;8.606;2023-11-19T04:42:39;7.18;;;6.15;;
10410;SDS011;5251;52.112;8.606;2023-11-19T04:45:05;5.72;;;5.13;;
10410;SDS011;5251;52.112;8.606;2023-11-19T04:47:32;8.57;;;5.95;;
10410;SDS011;5251;52.112;8.606;2023-11-19T04:49:58;9.35;;;5.70;;
10410;SDS011;5251;52.112;8.606;2023-11-19T04:52:24;7.55;;;5.10;;
10410;SDS011;5251;52.112;8.606;2023-11-19T04:54:49;7.95;;;4.90;;
10410;SDS011;5251;52.112;8.606;2023-11-19T04:57:15;6.97;;;5.07;;
10410;SDS011;5251;52.112;8.606;2023-11-19T04:59:41;6.93;;;4.70;;
10410;SDS011;5251;52.112;8.606;2023-11-19T05:02:06;7.65;;;4.80;;
10410;SDS011;5251;52.112;8.606;2023-11-19T05:04:33;7.40;;;4.57;;
10410;SDS011;5251;52.112;8.606;2023-11-19T05:06:59;9.65;;;4.40;;
10410;SDS011;5251;52.112;8.606;2023-11-19T05:09:24;5.80;;;3.45;;
10410;SDS011;5251;52.112;8.606;2023-11-19T05:11:50;7.30;;;3.92;;
10410;SDS011;5251;52.112;8.606;2023-11-19T05:14:16;7.38;;;3.38;;
10410;SDS011;5251;52.112;8.606;2023-11-19T05:16:41;9.07;;;3.63;;
10410;SDS011;5251;52.112;8.606;2023-11-19T05:19:08;9.85;;;3.10;;
10410;SDS011;5251;52.112;8.606;2023-11-19T05:21:34;9.85;;;3.05;;
10410;SDS011;5251;52.112;8.606;2023-11-19T05:24:01;9.02;;;3.60;;
10410;SDS011;5251;52.112;8.606;2023-11-19T05:26:29;11.93;;;3.97;;
10410;SDS011;5251;52.112;8.606;2023-11-19T05:28:55;10.10;;;3.30;;
10410;SDS011;5251;52.112;8.606;2023-11-19T05:31:21;10.15;;;3.35;;
10410;SDS011;5251;52.112;8.606;2023-11-19T05:33:46;9.07;;;2.80;;
10410;SDS011;5251;52.112;8.606;2023-11-19T05:36:12;10.45;;;2.88;;
10410;SDS011;5251;52.112;8.606;2023-11-19T05:38:37;9.85;;;3.20;;
10410;SDS011;5251;52.112;8.606;2023-11-19T05:41:03;10.75;;;3.35;;
10410;SDS011;5251;52.112;8.606;2023-11-19T05:43:29;9.38;;;3.05;;
10410;SDS011;5251;52.112;8.606;2023-11-19T05:45:55;10.75;;;3.15;;
10410;SDS011;5251;52.112;8.606;2023-11-19T05:48:21;8.20;;;2.97;;
10410;SDS011;5251;52.112;8.606;2023-11-19T05:50:47;12.05;;;3.38;;
10410;SDS011;5251;52.112;8.606;2023-11-19T05:53:15;11.18;;;3.15;;
10410;SDS011;5251;52.112;8.606;2023-11-19T05:55:41;10.05;;;3.38;;
10410;SDS011;5251;52.112;8.606;2023-11-19T05:58:19;9.70;;;3.40;;
10410;SDS011;5251;52.112;8.606;2023-11-19T06:00:48;9.77;;;3.15;;
10410;SDS011;5251;52.112;8.606;2023-11-19T06:03:15;9.77;;;3.10;;
10410;SDS011;5251;52.112;8.606;2023-11-19T06:05:43;13.95;;;3.35;;
10410;SDS011;5251;52.112;8.606;2023-11-19T06:08:10;12.27;;;3.13;;
10410;SDS011;5251;52.112;8.606;2023-11-19T06:10:38;10.50;;;3.22;;
10410;SDS011;5251;52.112;8.606;2023-11-19T06:13:04;11.45;;;4.05;;
10410;SDS011;5251;52.112;8.606;2023-11-19T06:15:30;13.93;;;4.30;;
10410;SDS011;5251;52.112;8.606;2023-11-19T06:17:57;12.48;;;3.67;;
10410;SDS011;5251;52.112;8.606;2023-11-19T06:20:24;12.55;;;3.85;;
10410;SDS011;5251;52.112;8.606;2023-11-19T06:22:50;10.88;;;3.63;;
10410;SDS011;5251;52.112;8.606;2023-11-19T06:25:15;10.32;;;3.03;;
10410;SDS011;5251;52.112;8.606;2023-11-19T06:27:41;12.20;;;3.30;;
10410;SDS011;5251;52.112;8.606;2023-11-19T06:30:07;13.77;;;3.83;;
10410;SDS011;5251;52.112;8.606;2023-11-19T06:32:33;16.80;;;4.18;;
10410;SDS011;5251;52.112;8.606;2023-11-19T06:34:59;13.75;;;3.72;;
10410;SDS011;5251;52.112;8.606;2023-11-19T06:37:25;12.15;;;3.55;;
10410;SDS011;5251;52.112;8.606;2023-11-19T06:39:50;14.93;;;4.10;;
10410;SDS011;5251;52.112;8.606;2023-11-19T06:42:16;11.57;;;3.88;;
10410;SDS011;5251;52.112;8.606;2023-11-19T06:44:42;14.48;;;3.92;;
10410;SDS011;5251;52.112;8.606;2023-11-19T06:47:07;13.68;;;3.67;;
10410;SDS011;5251;52.112;8.606;2023-11-19T06:49:33;13.35;;;3.97;;
10410;SDS011;5251;52.112;8.606;2023-11-19T06:51:59;11.25;;;4.07;;
10410;SDS011;5251;52.112;8.606;2023-11-19T06:54:24;13.27;;;4.07;;
10410;SDS011;5251;52.112;8.606;2023-11-19T06:56:50;15.48;;;4.53;;
10410;SDS011;5251;52.112;8.606;2023-11-19T06:59:16;13.80;;;3.83;;
10410;SDS011;5251;52.112;8.606;2023-11-19T07:01:41;16.45;;;4.85;;
10410;SDS011;5251;52.112;8.606;2023-11-19T07:04:10;14.23;;;4.03;;
10410;SDS011;5251;52.112;8.606;2023-11-19T07:06:38;16.60;;;4.57;;
10410;SDS011;5251;52.112;8.606;2023-11-19T07:09:06;13.15;;;3.97;;
10410;SDS011;5251;52.112;8.606;2023-11-19T07:11:37;11.80;;;4.30;;
10410;SDS011;5251;52.112;8.606;2023-11-19T07:14:04;15.77;;;4.20;;
10410;SDS011;5251;52.112;8.606;2023-11-19T07:16:34;15.10;;;4.32;;
10410;SDS011;5251;52.112;8.606;2023-11-19T07:19:02;21.52;;;5.20;;
10410;SDS011;5251;52.112;8.606;2023-11-19T07:21:28;16.98;;;4.30;;
10410;SDS011;5251;52.112;8.606;2023-11-19T07:23:54;20.38;;;4.70;;
10410;SDS011;5251;52.112;8.606;2023-11-19T07:26:20;20.83;;;5.00;;
10410;SDS011;5251;52.112;8.606;2023-11-19T07:28:47;16.02;;;4.32;;
10410;SDS011;5251;52.112;8.606;2023-11-19T07:31:13;13.68;;;4.00;;
10410;SDS011;5251;52.112;8.606;2023-11-19T07:33:39;16.05;;;4.82;;
10410;SDS011;5251;52.112;8.606;2023-11-19T07:36:07;10.18;;;3.45;;
10410;SDS011;5251;52.112;8.606;2023-11-19T07:38:33;16.05;;;3.90;;
10410;SDS011;5251;52.112;8.606;2023-11-19T07:40:59;11.88;;;3.72;;
10410;SDS011;5251;52.112;8.606;2023-11-19T07:43:25;18.00;;;4.63;;
10410;SDS011;5251;52.112;8.606;2023-11-19T07:45:50;14.90;;;4.00;;
10410;SDS011;5251;52.112;8.606;2023-11-19T07:48:16;13.32;;;4.00;;
10410;SDS011;5251;52.112;8.606;2023-11-19T07:50:47;13.18;;;3.65;;
10410;SDS011;5251;52.112;8.606;2023-11-19T07:53:15;13.43;;;4.03;;
10410;SDS011;5251;52.112;8.606;2023-11-19T07:55:43;17.27;;;4.82;;
10410;SDS011;5251;52.112;8.606;2023-11-19T07:58:09;11.45;;;3.65;;
10410;SDS011;5251;52.112;8.606;2023-11-19T08:00:35;15.68;;;4.35;;
10410;SDS011;5251;52.112;8.606;2023-11-19T08:03:02;18.30;;;4.70;;
10410;SDS011;5251;52.112;8.606;2023-11-19T08:05:28;18.00;;;4.50;;
10410;SDS011;5251;52.112;8.606;2023-11-19T08:07:53;13.65;;;4.07;;
10410;SDS011;5251;52.112;8.606;2023-11-19T08:10:19;18.40;;;4.15;;
10410;SDS011;5251;52.112;8.606;2023-11-19T08:12:45;16.45;;;3.97;;
10410;SDS011;5251;52.112;8.606;2023-11-19T08:15:11;19.83;;;4.97;;
10410;SDS011;5251;52.112;8.606;2023-11-19T08:17:36;15.20;;;4.30;;
10410;SDS011;5251;52.112;8.606;2023-11-19T08:20:02;14.57;;;4.18;;
10410;SDS011;5251;52.112;8.606;2023-11-19T08:22:30;20.50;;;4.80;;
10410;SDS011;5251;52.112;8.606;2023-11-19T08:24:55;15.43;;;4.40;;
10410;SDS011;5251;52.112;8.606;2023-11-19T08:27:21;19.02;;;4.18;;
10410;SDS011;5251;52.112;8.606;2023-11-19T08:29:53;13.93;;;4.45;;
10410;SDS011;5251;52.112;8.606;2023-11-19T08:32:21;17.58;;;4.10;;
10410;SDS011;5251;52.112;8.606;2023-11-19T08:34:48;16.85;;;3.65;;
10410;SDS011;5251;52.112;8.606;2023-11-19T08:37:13;12.00;;;3.88;;
10410;SDS011;5251;52.112;8.606;2023-11-19T08:39:39;17.38;;;3.75;;
10410;SDS011;5251;52.112;8.606;2023-11-19T08:42:06;15.43;;;4.30;;
10410;SDS011;5251;52.112;8.606;2023-11-19T08:44:31;16.98;;;4.38;;
10410;SDS011;5251;52.112;8.606;2023-11-19T08:46:57;18.52;;;4.05;;
10410;SDS011;5251;52.112;8.606;2023-11-19T08:49:22;17.63;;;5.32;;
10410;SDS011;5251;52.112;8.606;2023-11-19T08:51:48;19.45;;;4.63;;
10410;SDS011;5251;52.112;8.606;2023-11-19T08:54:14;13.63;;;4.28;;
10410;SDS011;5251;52.112;8.606;2023-11-19T08:56:39;17.65;;;4.78;;
10410;SDS011;5251;52.112;8.606;2023-11-19T08:59:05;15.52;;;4.20;;
10410;SDS011;5251;52.112;8.606;2023-11-19T09:01:31;18.17;;;4.95;;
10410;SDS011;5251;52.112;8.606;2023-11-19T09:03:56;17.45;;;4.20;;
10410;SDS011;5251;52.112;8.606;2023-11-19T09:06:22;16.75;;;4.03;;
10410;SDS011;5251;52.112;8.606;2023-11-19T09:08:48;15.02;;;4.03;;
10410;SDS011;5251;52.112;8.606;2023-11-19T09:11:13;16.42;;;4.22;;
10410;SDS011;5251;52.112;8.606;2023-11-19T09:13:39;17.42;;;5.53;;
10410;SDS011;5251;52.112;8.606;2023-11-19T09:16:04;22.83;;;4.22;;
10410;SDS011;5251;52.112;8.606;2023-11-19T09:18:30;22.20;;;5.60;;
10410;SDS011;5251;52.112;8.606;2023-11-19T09:21:00;21.98;;;5.22;;
10410;SDS011;5251;52.112;8.606;2023-11-19T09:23:25;15.73;;;4.70;;
10410;SDS011;5251;52.112;8.606;2023-11-19T09:25:52;20.13;;;5.00;;
10410;SDS011;5251;52.112;8.606;2023-11-19T09:28:18;15.02;;;4.28;;
10410;SDS011;5251;52.112;8.606;2023-11-19T09:30:44;15.50;;;4.35;;
10410;SDS011;5251;52.112;8.606;2023-11-19T09:33:09;13.57;;;4.13;;
10410;SDS011;5251;52.112;8.606;2023-11-19T09:35:35;14.65;;;4.25;;
10410;SDS011;5251;52.112;8.606;2023-11-19T09:38:00;19.05;;;5.15;;
10410;SDS011;5251;52.112;8.606;2023-11-19T09:40:26;13.65;;;4.03;;
10410;SDS011;5251;52.112;8.606;2023-11-19T09:42:53;18.85;;;4.90;;
10410;SDS011;5251;52.112;8.606;2023-11-19T09:45:20;15.20;;;4.80;;
10410;SDS011;5251;52.112;8.606;2023-11-19T09:47:46;18.77;;;4.57;;
10410;SDS011;5251;52.112;8.606;2023-11-19T09:50:14;14.40;;;4.22;;
10410;SDS011;5251;52.112;8.606;2023-11-19T09:52:42;19.23;;;4.88;;
10410;SDS011;5251;52.112;8.606;2023-11-19T09:55:08;16.40;;;3.75;;
10410;SDS011;5251;52.112;8.606;2023-11-19T09:57:34;17.67;;;4.07;;
10410;SDS011;5251;52.112;8.606;2023-11-19T10:00:02;13.20;;;4.55;;
10410;SDS011;5251;52.112;8.606;2023-11-19T10:02:30;15.38;;;3.88;;
10410;SDS011;5251;52.112;8.606;2023-11-19T10:04:58;16.23;;;4.13;;
10410;SDS011;5251;52.112;8.606;2023-11-19T10:07:24;18.75;;;5.28;;
10410;SDS011;5251;52.112;8.606;2023-11-19T10:09:50;14.88;;;3.95;;
10410;SDS011;5251;52.112;8.606;2023-11-19T10:12:15;18.40;;;4.88;;
10410;SDS011;5251;52.112;8.606;2023-11-19T10:14:41;14.75;;;4.20;;
10410;SDS011;5251;52.112;8.606;2023-11-19T10:17:09;13.93;;;4.25;;
10410;SDS011;5251;52.112;8.606;2023-11-19T10:19:34;15.80;;;4.28;;
10410;SDS011;5251;52.112;8.606;2023-11-19T10:22:09;19.05;;;4.50;;
10410;SDS011;5251;52.112;8.606;2023-11-19T10:24:36;15.65;;;4.63;;
10410;SDS011;5251;52.112;8.606;2023-11-19T10:27:06;15.18;;;4.80;;
10410;SDS011;5251;52.112;8.606;2023-11-19T10:29:35;15.80;;;4.13;;
10410;SDS011;5251;52.112;8.606;2023-11-19T10:32:02;14.73;;;4.05;;
10410;SDS011;5251;52.112;8.606;2023-11-19T10:34:28;22.02;;;5.53;;
10410;SDS011;5251;52.112;8.606;2023-11-19T10:36:55;14.80;;;3.63;;
10410;SDS011;5251;52.112;8.606;2023-11-19T10:39:20;18.52;;;4.40;;
10410;SDS011;5251;52.112;8.606;2023-11-19T10:41:46;16.58;;;4.05;;
10410;SDS011;5251;52.112;8.606;2023-11-19T10:44:12;15.05;;;4.35;;
10410;SDS011;5251;52.112;8.606;2023-11-19T10:46:55;18.98;;;4.95;;
10410;SDS011;5251;52.112;8.606;2023-11-19T10:49:21;18.83;;;5.00;;
10410;SDS011;5251;52.112;8.606;2023-11-19T10:51:46;15.30;;;3.80;;
10410;SDS011;5251;52.112;8.606;2023-11-19T10:54:12;21.05;;;4.70;;
10410;SDS011;5251;52.112;8.606;2023-11-19T10:56:43;17.23;;;4.70;;
10410;SDS011;5251;52.112;8.606;2023-11-19T10:59:13;12.38;;;3.70;;
10410;SDS011;5251;52.112;8.606;2023-11-19T11:01:43;11.18;;;4.05;;
10410;SDS011;5251;52.112;8.606;2023-11-19T11:04:14;17.40;;;4.05;;
10410;SDS011;5251;52.112;8.606;2023-11-19T11:06:47;15.13;;;3.60;;
10410;SDS011;5251;52.112;8.606;2023-11-19T11:09:13;19.35;;;4.30;;
10410;SDS011;5251;52.112;8.606;2023-11-19T11:11:40;14.43;;;3.97;;
10410;SDS011;5251;52.112;8.606;2023-11-19T11:14:08;17.20;;;4.20;;
10410;SDS011;5251;52.112;8.606;2023-11-19T11:16:37;13.60;;;3.95;;
10410;SDS011;5251;52.112;8.606;2023-11-19T11:19:08;17.27;;;3.60;;
10410;SDS011;5251;52.112;8.606;2023-11-19T11:21:35;14.43;;;4.07;;
10410;SDS011;5251;52.112;8.606;2023-11-19T11:26:40;17.85;;;4.10;;
10410;SDS011;5251;52.112;8.606;2023-11-19T11:29:34;14.15;;;3.83;;
10410;SDS011;5251;52.112;8.606;2023-11-19T11:35:08;19.10;;;4.28;;
10410;SDS011;5251;52.112;8.606;2023-11-19T11:37:39;20.70;;;4.72;;
10410;SDS011;5251;52.112;8.606;2023-11-19T11:40:15;15.65;;;4.18;;
10410;SDS011;5251;52.112;8.606;2023-11-19T11:42:43;12.23;;;3.72;;
10410;SDS011;5251;52.112;8.606;2023-11-19T11:45:12;14.88;;;4.13;;
10410;SDS011;5251;52.112;8.606;2023-11-19T11:50:14;15.88;;;3.42;;
10410;SDS011;5251;52.112;8.606;2023-11-19T11:57:54;15.75;;;3.45;;
10410;SDS011;5251;52.112;8.606;2023-11-19T12:03:01;16.45;;;4.38;;
10410;SDS011;5251;52.112;8.606;2023-11-19T12:05:27;13.30;;;4.40;;
10410;SDS011;5251;52.112;8.606;2023-11-19T12:07:55;18.40;;;4.90;;
10410;SDS011;5251;52.112;8.606;2023-11-19T12:10:20;18.40;;;4.45;;
10410;SDS011;5251;52.112;8.606;2023-11-19T12:12:47;17.73;;;4.18;;
10410;SDS011;5251;52.112;8.606;2023-11-19T12:15:12;21.45;;;4.10;;
10410;SDS011;5251;52.112;8.606;2023-11-19T12:20:14;15.02;;;4.45;;
10410;SDS011;5251;52.112;8.606;2023-11-19T12:22:43;15.52;;;4.28;;
10410;SDS011;5251;52.112;8.606;2023-11-19T12:25:11;14.88;;;4.10;;
10410;SDS011;5251;52.112;8.606;2023-11-19T12:27:44;17.30;;;4.57;;
10410;SDS011;5251;52.112;8.606;2023-11-19T12:30:23;16.17;;;4.13;;
10410;SDS011;5251;52.112;8.606;2023-11-19T12:32:49;15.32;;;4.18;;
10410;SDS011;5251;52.112;8.606;2023-11-19T12:35:15;17.20;;;3.85;;
10410;SDS011;5251;52.112;8.606;2023-11-19T12:37:41;14.02;;;3.85;;
10410;SDS011;5251;52.112;8.606;2023-11-19T12:42:47;16.77;;;4.35;;
10410;SDS011;5251;52.112;8.606;2023-11-19T12:45:17;23.38;;;4.20;;
10410;SDS011;5251;52.112;8.606;2023-11-19T12:47:45;16.15;;;3.80;;
10410;SDS011;5251;52.112;8.606;2023-11-19T12:50:14;17.35;;;4.43;;
10410;SDS011;5251;52.112;8.606;2023-11-19T12:52:40;15.48;;;4.75;;
10410;SDS011;5251;52.112;8.606;2023-11-19T12:55:28;12.40;;;3.35;;
10410;SDS011;5251;52.112;8.606;2023-11-19T12:57:53;19.33;;;4.60;;
10410;SDS011;5251;52.112;8.606;2023-11-19T13:00:21;12.15;;;3.70;;
10410;SDS011;5251;52.112;8.606;2023-11-19T13:02:53;14.25;;;3.92;;
10410;SDS011;5251;52.112;8.606;2023-11-19T13:08:00;9.35;;;3.33;;
10410;SDS011;5251;52.112;8.606;2023-11-19T13:10:30;19.50;;;4.35;;
10410;SDS011;5251;52.112;8.606;2023-11-19T13:13:14;16.13;;;3.78;;
10410;SDS011;5251;52.112;8.606;2023-11-19T13:15:40;15.75;;;4.47;;
10410;SDS011;5251;52.112;8.606;2023-11-19T13:18:06;15.10;;;3.72;;
10410;SDS011;5251;52.112;8.606;2023-11-19T13:20:32;13.15;;;3.70;;
10410;SDS011;5251;52.112;8.606;2023-11-19T13:22:58;13.43;;;3.95;;
10410;SDS011;5251;52.112;8.606;2023-11-19T13:25:32;15.35;;;3.85;;
10410;SDS011;5251;52.112;8.606;2023-11-19T13:27:58;14.63;;;3.50;;
10410;SDS011;5251;52.112;8.606;2023-11-19T13:30:24;16.15;;;3.67;;
10410;SDS011;5251;52.112;8.606;2023-11-19T13:32:51;12.05;;;3.60;;
10410;SDS011;5251;52.112;8.606;2023-11-19T13:35:17;9.30;;;3.67;;
10410;SDS011;5251;52.112;8.606;2023-11-19T13:37:43;10.50;;;2.90;;
10410;SDS011;5251;52.112;8.606;2023-11-19T13:40:10;16.95;;;4.43;;
10410;SDS011;5251;52.112;8.606;2023-11-19T13:42:40;13.35;;;3.80;;
10410;SDS011;5251;52.112;8.606;2023-11-19T13:45:10;10.70;;;3.13;;
10410;SDS011;5251;52.112;8.606;2023-11-19T13:47:41;11.20;;;3.17;;
10410;SDS011;5251;52.112;8.606;2023-11-19T13:50:11;17.98;;;3.70;;
10410;SDS011;5251;52.112;8.606;2023-11-19T13:52:39;12.32;;;3.33;;
10410;SDS011;5251;52.112;8.606;2023-11-19T13:55:06;13.45;;;3.80;;
10410;SDS011;5251;52.112;8.606;2023-11-19T13:57:37;11.63;;;3.75;;
10410;SDS011;5251;52.112;8.606;2023-11-19T14:00:03;15.05;;;3.97;;
10410;SDS011;5251;52.112;8.606;2023-11-19T14:02:31;18.77;;;4.63;;
10410;SDS011;5251;52.112;8.606;2023-11-19T14:04:57;11.50;;;3.47;;
10410;SDS011;5251;52.112;8.606;2023-11-19T14:07:23;9.38;;;3.08;;
10410;SDS011;5251;52.112;8.606;2023-11-19T14:09:49;13.73;;;3.70;;
10410;SDS011;5251;52.112;8.606;2023-11-19T14:12:15;17.27;;;4.15;;
10410;SDS011;5251;52.112;8.606;2023-11-19T14:14:41;10.50;;;3.28;;
10410;SDS011;5251;52.112;8.606;2023-11-19T14:17:07;14.65;;;4.07;;
10410;SDS011;5251;52.112;8.606;2023-11-19T14:19:32;16.73;;;4.18;;
10410;SDS011;5251;52.112;8.606;2023-11-19T14:21:58;14.98;;;3.25;;
10410;SDS011;5251;52.112;8.606;2023-11-19T14:24:25;10.98;;;3.22;;
10410;SDS011;5251;52.112;8.606;2023-11-19T14:26:51;14.02;;;3.42;;
10410;SDS011;5251;52.112;8.606;2023-11-19T14:29:16;9.68;;;3.28;;
10410;SDS011;5251;52.112;8.606;2023-11-19T14:31:42;9.43;;;3.47;;
10410;SDS011;5251;52.112;8.606;2023-11-19T14:34:08;18.45;;;4.47;;
10410;SDS011;5251;52.112;8.606;2023-11-19T14:36:33;13.90;;;3.85;;
10410;SDS011;5251;52.112;8.606;2023-11-19T14:39:00;13.73;;;3.67;;
10410;SDS011;5251;52.112;8.606;2023-11-19T14:41:25;10.45;;;3.65;;
10410;SDS011;5251;52.112;8.606;2023-11-19T14:43:51;13.40;;;3.13;;
10410;SDS011;5251;52.112;8.606;2023-11-19T14:46:17;11.45;;;3.13;;
10410;SDS011;5251;52.112;8.606;2023-11-19T14:48:43;15.52;;;4.50;;
10410;SDS011;5251;52.112;8.606;2023-11-19T14:51:08;16.00;;;3.35;;
10410;SDS011;5251;52.112;8.606;2023-11-19T14:53:34;11.20;;;3.72;;
10410;SDS011;5251;52.112;8.606;2023-11-19T14:55:59;14.93;;;3.78;;
10410;SDS011;5251;52.112;8.606;2023-11-19T14:58:25;17.45;;;3.88;;
10410;SDS011;5251;52.112;8.606;2023-11-19T15:00:51;9.43;;;3.22;;
10410;SDS011;5251;52.112;8.606;2023-11-19T15:03:17;10.98;;;3.30;;
10410;SDS011;5251;52.112;8.606;2023-11-19T15:05:47;13.30;;;3.05;;
10410;SDS011;5251;52.112;8.606;2023-11-19T15:08:13;12.18;;;3.42;;
10410;SDS011;5251;52.112;8.606;2023-11-19T15:10:41;9.73;;;3.15;;
10410;SDS011;5251;52.112;8.606;2023-11-19T15:13:07;14.70;;;2.97;;
10410;SDS011;5251;52.112;8.606;2023-11-19T15:15:33;13.88;;;3.30;;
10410;SDS011;5251;52.112;8.606;2023-11-19T15:17:59;13.35;;;3.33;;